Terminal Aerodrome Forecast
Issued by NWS

Home | Current Version | Previous Version | Text Only | Print | Product List | Glossary On
Versions: 1 2 3 4 5 6 7 8 9 10 11
000
FTUS45 KLKN 111120
TAFELY
TAF
KELY 111120Z 1112/1212 18011KT P6SM SKC
     FM111900 35005KT P6SM SKC
     FM120200 17009KT P6SM SKC=

USA.gov is the U.S. government's official web portal to all federal, state and local government web resources and services.